createdAt,value
2022-11-19T00:00:01.212Z,100618.31
2022-11-19T00:05:05.132Z,100625.53
2022-11-19T00:10:10.735Z,100637.81
2022-11-19T00:15:14.618Z,100636.06
2022-11-19T00:20:18.621Z,100643.41
2022-11-19T00:25:24.883Z,100637.91
2022-11-19T00:35:52.398Z,100656.03
2022-11-19T00:40:57.748Z,100653.87
2022-11-19T00:46:01.523Z,100654.50
2022-11-19T00:51:05.268Z,100661.56
2022-11-19T00:56:13.464Z,100662.91
2022-11-19T01:01:19.505Z,100666.34
2022-11-19T01:06:26.748Z,100662.19
2022-11-19T01:11:33.707Z,100663.63
2022-11-19T01:16:39.407Z,100677.66
2022-11-19T01:21:43.242Z,100687.69
2022-11-19T01:26:48.337Z,100685.50
2022-11-19T01:31:51.997Z,100695.72
2022-11-19T01:36:55.820Z,100694.41
2022-11-19T01:42:00.869Z,100697.34
2022-11-19T01:47:04.574Z,100702.31
2022-11-19T01:52:08.377Z,100707.25
2022-11-19T01:57:16.479Z,100710.53
2022-11-19T02:02:22.657Z,100712.13
2022-11-19T02:07:29.394Z,100714.78
2022-11-19T02:12:46.734Z,100723.59
2022-11-19T02:18:25.872Z,100722.16
2022-11-19T02:23:58.525Z,100725.34
2022-11-19T02:29:13.866Z,100733.78
2022-11-19T02:34:25.742Z,100737.75
2022-11-19T02:39:38.012Z,100730.47
2022-11-19T02:45:00.002Z,100739.50
2022-11-19T02:50:10.723Z,100741.69
2022-11-19T02:55:19.986Z,100746.81
2022-11-19T03:00:41.255Z,100750.72
2022-11-19T03:05:51.615Z,100759.13
2022-11-19T03:11:07.098Z,100757.16
2022-11-19T03:16:35.958Z,100765.03
2022-11-19T03:21:46.985Z,100769.31
2022-11-19T03:26:55.565Z,100771.69
2022-11-19T03:32:04.446Z,100772.16
2022-11-19T03:37:10.728Z,100777.09
2022-11-19T03:42:18.209Z,100772.16
2022-11-19T03:47:25.677Z,100773.16
2022-11-19T03:52:30.867Z,100777.81
2022-11-19T03:57:34.837Z,100776.53
2022-11-19T04:02:38.545Z,100785.50
2022-11-19T04:07:43.589Z,100790.06
2022-11-19T04:12:47.476Z,100794.09
2022-11-19T04:17:51.089Z,100795.78
2022-11-19T04:22:56.139Z,100801.47
2022-11-19T04:27:59.770Z,100810.25
2022-11-19T04:33:03.511Z,100816.06
2022-11-19T04:38:08.598Z,100825.44
2022-11-19T04:43:12.261Z,100828.12
2022-11-19T04:48:15.916Z,100827.19
2022-11-19T04:53:20.991Z,100840.81
2022-11-19T04:58:24.718Z,100837.94
2022-11-19T05:03:28.629Z,100843.37
2022-11-19T05:08:33.627Z,100846.13
2022-11-19T05:13:37.463Z,100860.31
2022-11-19T05:18:41.243Z,100850.25
2022-11-19T05:23:46.313Z,100859.91
2022-11-19T05:28:50.062Z,100862.38
2022-11-19T05:33:53.746Z,100873.81
2022-11-19T05:38:58.852Z,100879.69
2022-11-19T05:44:02.782Z,100881.37
2022-11-19T05:49:06.582Z,100880.13
2022-11-19T05:54:12.018Z,100890.97
2022-11-19T05:59:15.854Z,100894.09
2022-11-19T06:04:19.663Z,100897.03
2022-11-19T06:09:24.785Z,100898.19
2022-11-19T06:14:28.670Z,100904.22
2022-11-19T06:19:32.363Z,100902.78
2022-11-19T06:24:37.429Z,100905.91
2022-11-19T06:29:41.135Z,100911.09
2022-11-19T06:34:44.802Z,100926.72
2022-11-19T06:39:49.902Z,100933.38
2022-11-19T06:44:53.691Z,100943.78
2022-11-19T06:49:57.430Z,100945.00
2022-11-19T06:55:02.705Z,100946.03
2022-11-19T07:00:07.586Z,100954.03
2022-11-19T07:05:11.365Z,100965.28
2022-11-19T07:10:17.155Z,100970.19
2022-11-19T07:15:20.943Z,100977.28
2022-11-19T07:20:24.626Z,100981.50
2022-11-19T07:25:29.993Z,100996.78
2022-11-19T07:30:33.737Z,101002.53
2022-11-19T07:35:37.454Z,101003.19
2022-11-19T07:40:42.594Z,101005.88
2022-11-19T07:45:46.408Z,101006.75
2022-11-19T07:50:56.512Z,101013.44
2022-11-19T07:56:02.538Z,101016.66
2022-11-19T08:01:10.270Z,101018.34
2022-11-19T08:06:14.075Z,101021.56
2022-11-19T08:11:19.423Z,101019.78
2022-11-19T08:16:40.802Z,101029.34
2022-11-19T08:21:46.519Z,101026.47
2022-11-19T08:26:51.669Z,101040.34
2022-11-19T08:31:55.397Z,101040.91
2022-11-19T08:36:59.185Z,101044.16
2022-11-19T08:42:21.810Z,101047.69
2022-11-19T08:47:25.513Z,101047.69
2022-11-19T08:52:29.363Z,101056.72
2022-11-19T08:57:34.523Z,101068.94
2022-11-19T09:02:38.381Z,101067.06
2022-11-19T09:07:42.156Z,101066.19
2022-11-19T09:12:47.442Z,101077.72
2022-11-19T09:17:51.196Z,101078.84
2022-11-19T09:22:54.915Z,101085.41
2022-11-19T09:27:59.997Z,101093.56
2022-11-19T09:33:03.802Z,101099.91
2022-11-19T09:38:07.532Z,101095.91
2022-11-19T09:43:21.255Z,101097.44
2022-11-19T09:48:33.215Z,101103.56
2022-11-19T09:53:43.772Z,101115.09
2022-11-19T09:58:49.137Z,101117.66
2022-11-19T10:03:55.615Z,101116.00
2022-11-19T10:09:34.004Z,101116.22
2022-11-19T10:14:56.443Z,101125.13
2022-11-19T10:20:14.462Z,101125.50
2022-11-19T10:25:19.987Z,101135.63
2022-11-19T10:30:26.795Z,101139.31
2022-11-19T10:35:33.391Z,101135.75
2022-11-19T10:40:40.964Z,101135.84
2022-11-19T10:45:46.009Z,101148.09
2022-11-19T10:50:50.734Z,101152.84
2022-11-19T10:55:58.607Z,101146.06
2022-11-19T11:01:05.961Z,101147.06
2022-11-19T11:06:10.356Z,101151.72
2022-11-19T11:11:14.223Z,101143.59
2022-11-19T11:16:21.425Z,101138.28
2022-11-19T11:21:39.720Z,101135.37
2022-11-19T11:26:43.479Z,101135.81
2022-11-19T11:31:49.231Z,101126.59
2022-11-19T11:36:54.056Z,101131.44
2022-11-19T11:42:05.797Z,101131.91
2022-11-19T11:47:16.171Z,101135.66
2022-11-19T11:52:23.973Z,101130.19
2022-11-19T11:57:29.384Z,101136.31
2022-11-19T12:02:36.436Z,101139.19
2022-11-19T12:08:03.782Z,101139.22
2022-11-19T12:13:46.645Z,101127.75
2022-11-19T12:19:09.053Z,101121.19
2022-11-19T12:24:30.539Z,101123.12
2022-11-19T12:29:42.765Z,101129.88
2022-11-19T12:35:13.939Z,101124.66
2022-11-19T12:40:38.373Z,101128.13
2022-11-19T12:45:53.431Z,101129.53
2022-11-19T12:51:13.170Z,101132.97
2022-11-19T12:56:31.296Z,101136.53
2022-11-19T13:01:38.707Z,101134.72
2022-11-19T13:06:49.955Z,101145.63
2022-11-19T13:11:57.754Z,101140.41
2022-11-19T13:17:04.901Z,101146.50
2022-11-19T13:22:17.200Z,101140.28
2022-11-19T13:27:25.254Z,101150.31
2022-11-19T13:32:35.882Z,101137.38
2022-11-19T13:37:47.678Z,101140.62
2022-11-19T13:48:37.599Z,101147.03
2022-11-19T13:53:46.217Z,101142.78
2022-11-19T13:58:52.613Z,101141.91
2022-11-19T14:04:16.142Z,101151.97
2022-11-19T14:09:32.480Z,101147.44
2022-11-19T14:15:06.591Z,101140.44
2022-11-19T14:20:50.194Z,101144.12
2022-11-19T14:26:27.779Z,101143.25
2022-11-19T14:31:31.528Z,101149.09
2022-11-19T14:36:46.187Z,101151.63
2022-11-19T14:42:14.951Z,101155.75
2022-11-19T14:47:39.275Z,101153.53
2022-11-19T14:52:52.982Z,101156.22
2022-11-19T14:58:02.624Z,101161.53
2022-11-19T15:03:09.641Z,101156.56
2022-11-19T15:08:31.395Z,101151.00
2022-11-19T15:13:37.613Z,101163.91
2022-11-19T15:19:19.320Z,101167.91
2022-11-19T15:24:36.255Z,101173.44
2022-11-19T15:30:07.117Z,101161.75
2022-11-19T15:35:28.838Z,101170.09
2022-11-19T15:40:35.179Z,101162.06
2022-11-19T15:45:46.123Z,101180.91
2022-11-19T15:50:50.649Z,101180.09
2022-11-19T15:55:57.801Z,101186.59
2022-11-19T16:01:03.411Z,101182.78
2022-11-19T16:06:11.371Z,101178.66
2022-11-19T16:11:37.756Z,101184.78
2022-11-19T16:17:00.523Z,101186.53
2022-11-19T16:22:06.194Z,101180.75
2022-11-19T16:27:13.152Z,101181.06
2022-11-19T16:32:20.632Z,101189.09
2022-11-19T16:37:25.385Z,101183.88
2022-11-19T16:42:30.866Z,101189.97
2022-11-19T16:47:38.526Z,101189.09
2022-11-19T16:52:43.986Z,101184.12
2022-11-19T16:57:48.982Z,101188.88
2022-11-19T17:02:54.167Z,101192.97
2022-11-19T17:08:06.131Z,101185.53
2022-11-19T17:13:29.597Z,101195.53
2022-11-19T17:18:35.383Z,101196.41
2022-11-19T17:23:48.857Z,101199.97
2022-11-19T17:28:58.302Z,101206.91
2022-11-19T17:34:12.315Z,101199.31
2022-11-19T17:39:21.088Z,101209.84
2022-11-19T17:44:34.664Z,101211.53
2022-11-19T17:49:39.914Z,101213.28
2022-11-19T17:54:46.420Z,101217.66
2022-11-19T17:59:50.179Z,101211.69
2022-11-19T18:04:55.262Z,101210.06
2022-11-19T18:09:58.963Z,101216.94
2022-11-19T18:15:02.802Z,101212.84
2022-11-19T18:20:09.827Z,101208.97
2022-11-19T18:25:15.804Z,101202.75
2022-11-19T18:30:19.698Z,101211.28
2022-11-19T18:35:27.681Z,101202.19
2022-11-19T18:40:31.492Z,101214.91
2022-11-19T18:45:35.221Z,101207.97
2022-11-19T18:50:41.706Z,101204.03
2022-11-19T18:55:48.280Z,101216.41
2022-11-19T19:00:52.487Z,101215.16
2022-11-19T19:05:57.526Z,101207.13
2022-11-19T19:11:15.615Z,101201.00
2022-11-19T19:16:19.389Z,101202.69
2022-11-19T19:21:24.680Z,101200.41
2022-11-19T19:26:28.417Z,101210.37
2022-11-19T19:31:32.422Z,101201.72
2022-11-19T19:36:37.635Z,101216.78
2022-11-19T19:41:41.458Z,101216.03
2022-11-19T19:46:47.814Z,101211.81
2022-11-19T19:51:53.146Z,101223.44
2022-11-19T19:56:56.832Z,101218.09
2022-11-19T20:02:00.639Z,101221.31
2022-11-19T20:07:05.754Z,101236.41
2022-11-19T20:12:09.513Z,101228.72
2022-11-19T20:17:13.367Z,101232.16
2022-11-19T20:22:18.465Z,101230.25
2022-11-19T20:27:22.887Z,101229.00
2022-11-19T20:32:26.734Z,101237.84
2022-11-19T20:37:32.035Z,101235.84
2022-11-19T20:42:53.378Z,101238.75
2022-11-19T20:47:57.431Z,101246.31
2022-11-19T20:53:02.511Z,101256.81
2022-11-19T20:58:06.250Z,101255.78
2022-11-19T21:03:10.055Z,101260.66
2022-11-19T21:08:16.363Z,101253.50
2022-11-19T21:13:20.089Z,101259.25
2022-11-19T21:18:24.621Z,101253.38
2022-11-19T21:23:30.445Z,101248.41
2022-11-19T21:28:35.279Z,101249.16
2022-11-19T21:33:39.037Z,101251.34
2022-11-19T21:38:44.088Z,101249.44
2022-11-19T21:43:47.890Z,101239.91
2022-11-19T21:48:51.663Z,101235.94
2022-11-19T21:53:58.082Z,101241.16
2022-11-19T21:59:01.753Z,101231.09
2022-11-19T22:04:06.021Z,101241.94
2022-11-19T22:09:11.209Z,101239.34
2022-11-19T22:14:14.953Z,101247.37
2022-11-19T22:19:19.188Z,101248.38
2022-11-19T22:24:24.509Z,101252.69
2022-11-19T22:29:29.111Z,101260.16
2022-11-19T22:34:32.823Z,101257.06
2022-11-19T22:39:37.851Z,101251.31
2022-11-19T22:44:41.693Z,101259.97
2022-11-19T22:49:45.455Z,101251.00
2022-11-19T22:54:50.522Z,101245.34
2022-11-19T22:59:54.373Z,101244.81
2022-11-19T23:04:59.182Z,101239.78
2022-11-19T23:10:04.525Z,101231.75
2022-11-19T23:15:08.929Z,101220.69
2022-11-19T23:20:13.001Z,101226.50
2022-11-19T23:25:18.109Z,101224.31
2022-11-19T23:30:21.882Z,101224.78
2022-11-19T23:35:25.589Z,101228.59
2022-11-19T23:40:30.622Z,101221.03
2022-11-19T23:45:36.548Z,101198.75
2022-11-19T23:50:40.255Z,101200.91
2022-11-19T23:55:48.422Z,101207.09
